Time;durP1;ratioP1;P1;durP2;ratioP2;P2;SDS_P1;SDS_P2;PMS_P1;PMS_P2;Temp;Humidity;BMP_temperature;BMP_pressure;BME280_temperature;BME280_humidity;BME280_pressure;Samples;Min_cycle;Max_cycle;Signal;HPM_P1;HPM_P2
2023/08/27 00:00:33;;;;;;;0.10;0.10;;;16.80;99.90;;;;;;5045429;28;20200;-81
2023/08/27 00:02:59;;;;;;;0.10;0.10;;;16.70;99.90;;;;;;5042963;28;20274;-82
2023/08/27 00:05:24;;;;;;;0.10;0.10;;;16.60;99.90;;;;;;5045105;28;20199;-82
2023/08/27 00:07:50;;;;;;;0.10;0.10;;;16.40;99.90;;;;;;5043610;28;20236;-82
2023/08/27 00:10:15;;;;;;;0.10;0.10;;;16.40;99.90;;;;;;5043840;28;20200;-82
2023/08/27 00:12:41;;;;;;;0.10;0.10;;;16.40;99.90;;;;;;5044560;28;20575;-82
2023/08/27 00:15:07;;;;;;;0.10;0.10;;;16.40;99.90;;;;;;5044429;28;20182;-82
2023/08/27 00:17:35;;;;;;;0.10;0.10;;;16.30;99.90;;;;;;5043872;28;20209;-82
2023/08/27 00:20:03;;;;;;;0.00;0.00;;;16.30;99.90;;;;;;5042825;28;20189;-82
2023/08/27 00:22:29;;;;;;;0.10;0.10;;;16.50;99.90;;;;;;5043419;28;20178;-81
2023/08/27 00:24:54;;;;;;;0.10;0.10;;;16.60;99.90;;;;;;5058309;28;21014;-82
2023/08/27 00:27:20;;;;;;;0.10;0.10;;;16.70;99.90;;;;;;5042356;28;20186;-82
2023/08/27 00:29:46;;;;;;;0.10;0.10;;;16.80;99.90;;;;;;5042650;28;20275;-82
2023/08/27 00:32:11;;;;;;;0.10;0.10;;;16.90;99.90;;;;;;5059752;28;20247;-81
2023/08/27 00:34:37;;;;;;;0.10;0.10;;;16.80;99.90;;;;;;5042955;28;20209;-82
2023/08/27 00:37:03;;;;;;;0.10;0.10;;;16.80;99.90;;;;;;5043153;28;20641;-82
2023/08/27 00:39:29;;;;;;;0.10;0.10;;;17.00;99.90;;;;;;5043206;28;20178;-82
2023/08/27 00:41:55;;;;;;;0.10;0.10;;;17.00;99.90;;;;;;5044376;28;20543;-82
2023/08/27 00:44:21;;;;;;;0.10;0.10;;;16.80;99.90;;;;;;5043321;28;20198;-82
2023/08/27 00:46:50;;;;;;;0.10;0.10;;;16.70;99.90;;;;;;5053229;28;20583;-82
2023/08/27 00:49:16;;;;;;;0.10;0.10;;;16.60;99.90;;;;;;5042318;28;20284;-82
2023/08/27 00:51:44;;;;;;;0.10;0.10;;;16.80;99.90;;;;;;5043481;28;20269;-82
2023/08/27 00:54:11;;;;;;;0.10;0.10;;;16.90;99.90;;;;;;5043580;28;20205;-82
2023/08/27 00:56:36;;;;;;;0.10;0.10;;;17.10;99.90;;;;;;5043745;28;20182;-82
2023/08/27 00:59:02;;;;;;;0.10;0.10;;;17.10;99.90;;;;;;5043592;28;20200;-82
2023/08/27 01:01:28;;;;;;;0.10;0.10;;;17.20;99.90;;;;;;5042657;28;20177;-82
2023/08/27 01:03:53;;;;;;;0.10;0.10;;;17.30;99.90;;;;;;5043593;28;20714;-82
2023/08/27 01:06:19;;;;;;;0.10;0.10;;;17.40;99.90;;;;;;5044948;28;20188;-82
2023/08/27 01:08:57;;;;;;;0.10;0.10;;;17.50;99.90;;;;;;5042322;28;20209;-81
2023/08/27 01:11:55;;;;;;;0.10;0.10;;;17.60;99.90;;;;;;5042221;28;20186;-82
2023/08/27 01:14:22;;;;;;;0.10;0.10;;;17.50;99.90;;;;;;5040283;28;20242;-82
2023/08/27 01:16:50;;;;;;;0.10;0.10;;;17.30;99.90;;;;;;5043740;28;20201;-82
2023/08/27 01:19:20;;;;;;;0.03;0.03;;;17.00;99.90;;;;;;5042770;28;20190;-82
2023/08/27 01:21:47;;;;;;;0.10;0.10;;;16.80;99.90;;;;;;5042037;28;20613;-82
2023/08/27 01:24:12;;;;;;;0.10;0.10;;;17.00;99.90;;;;;;5043971;28;21272;-82
2023/08/27 01:26:59;;;;;;;0.10;0.10;;;17.20;99.90;;;;;;5059524;28;20178;-82
2023/08/27 01:29:40;;;;;;;0.10;0.10;;;17.30;99.90;;;;;;5042283;28;20204;-82
2023/08/27 01:32:17;;;;;;;0.10;0.10;;;17.30;99.90;;;;;;5042158;28;21127;-82
2023/08/27 01:34:44;;;;;;;0.10;0.10;;;17.10;99.90;;;;;;5058615;28;20683;-82
2023/08/27 01:37:13;;;;;;;0.10;0.10;;;16.90;99.90;;;;;;5041860;28;20186;-82
2023/08/27 01:39:44;;;;;;;0.10;0.10;;;16.70;99.90;;;;;;5041266;28;20189;-82
2023/08/27 01:42:11;;;;;;;0.10;0.10;;;16.60;99.90;;;;;;5045143;28;20182;-82
2023/08/27 01:44:37;;;;;;;0.10;0.10;;;16.80;99.90;;;;;;5046639;28;20191;-82
2023/08/27 01:47:03;;;;;;;0.10;0.10;;;17.00;99.90;;;;;;5063778;28;20186;-82
2023/08/27 01:49:29;;;;;;;0.10;0.10;;;17.10;99.90;;;;;;5046202;28;20193;-81
2023/08/27 01:51:54;;;;;;;0.10;0.10;;;17.20;99.90;;;;;;5046119;28;20205;-82
2023/08/27 01:54:20;;;;;;;0.10;0.10;;;17.20;99.90;;;;;;5045400;28;20234;-82
2023/08/27 01:56:45;;;;;;;0.10;0.10;;;17.00;99.90;;;;;;5046256;28;20717;-82
2023/08/27 01:59:11;;;;;;;0.10;0.10;;;16.90;99.90;;;;;;5044348;28;20701;-82
2023/08/27 02:01:36;;;;;;;0.10;0.10;;;16.90;99.90;;;;;;5045892;28;21169;-82
2023/08/27 02:04:03;;;;;;;0.10;0.10;;;16.90;99.90;;;;;;5045916;28;20271;-82
2023/08/27 02:06:29;;;;;;;0.10;0.10;;;16.90;99.90;;;;;;5046322;28;20248;-82
2023/08/27 02:08:55;;;;;;;0.10;0.10;;;16.90;99.90;;;;;;5044834;28;20201;-82
2023/08/27 02:11:21;;;;;;;0.10;0.10;;;16.90;99.90;;;;;;5054400;28;20677;-82
2023/08/27 02:13:46;;;;;;;0.10;0.10;;;17.00;99.90;;;;;;5062199;28;20256;-82
2023/08/27 02:16:12;;;;;;;0.10;0.10;;;17.10;99.90;;;;;;5047756;28;20182;-82
2023/08/27 02:18:37;;;;;;;0.10;0.10;;;17.10;99.90;;;;;;5045251;28;20277;-82
2023/08/27 02:21:03;;;;;;;0.10;0.10;;;17.20;99.90;;;;;;5045585;28;20189;-82
2023/08/27 02:23:28;;;;;;;0.10;0.10;;;17.40;99.90;;;;;;5047607;28;20251;-82
2023/08/27 02:25:54;;;;;;;0.10;0.10;;;17.50;99.90;;;;;;5045162;28;20541;-82
2023/08/27 02:28:19;;;;;;;0.10;0.10;;;17.50;99.90;;;;;;5045243;28;20189;-82
2023/08/27 02:30:54;;;;;;;0.10;0.10;;;17.50;99.90;;;;;;5045211;28;20196;-82
2023/08/27 02:33:19;;;;;;;0.10;0.10;;;17.50;99.90;;;;;;5061191;28;20216;-82
2023/08/27 02:35:45;;;;;;;0.10;0.10;;;17.50;99.90;;;;;;5046986;28;20239;-82
2023/08/27 02:38:10;;;;;;;0.10;0.10;;;17.30;99.90;;;;;;5047052;28;20190;-81
2023/08/27 02:40:36;;;;;;;0.10;0.10;;;17.40;99.90;;;;;;5044390;28;20193;-82
2023/08/27 02:43:03;;;;;;;0.10;0.10;;;17.40;99.90;;;;;;5046975;28;20304;-82
2023/08/27 02:45:28;;;;;;;0.10;0.10;;;17.50;99.90;;;;;;5045702;28;20621;-82
2023/08/27 02:47:54;;;;;;;0.10;0.10;;;17.50;99.90;;;;;;5061085;28;20716;-82
2023/08/27 02:50:19;;;;;;;0.10;0.10;;;17.50;99.90;;;;;;5045079;28;20192;-82
2023/08/27 02:52:45;;;;;;;0.10;0.10;;;17.40;99.90;;;;;;5046462;28;20686;-82
2023/08/27 02:55:10;;;;;;;0.10;0.10;;;17.60;99.90;;;;;;5044787;28;20213;-82
2023/08/27 02:57:36;;;;;;;0.10;0.10;;;17.50;99.90;;;;;;5045916;28;20182;-82
2023/08/27 03:00:03;;;;;;;0.10;0.10;;;17.50;99.90;;;;;;5060838;28;20651;-82
2023/08/27 03:02:29;;;;;;;0.10;0.10;;;17.40;99.90;;;;;;5045019;28;20196;-82
2023/08/27 03:04:56;;;;;;;0.10;0.10;;;17.40;99.90;;;;;;5046615;28;20190;-82
2023/08/27 03:07:22;;;;;;;0.10;0.10;;;17.30;99.90;;;;;;5044978;28;20197;-82
2023/08/27 03:09:48;;;;;;;0.10;0.10;;;17.30;99.90;;;;;;5045730;28;20189;-82
2023/08/27 03:12:13;;;;;;;0.10;0.10;;;17.30;99.90;;;;;;5044445;28;20548;-82
2023/08/27 03:14:39;;;;;;;0.10;0.10;;;17.30;99.90;;;;;;5043726;28;20294;-82
2023/08/27 03:17:05;;;;;;;0.10;0.10;;;17.30;99.90;;;;;;5045779;28;20178;-82
2023/08/27 03:19:30;;;;;;;0.10;0.10;;;17.20;99.90;;;;;;5060713;28;20181;-82
2023/08/27 03:21:56;;;;;;;0.10;0.10;;;17.10;99.90;;;;;;5045041;28;20663;-82
2023/08/27 03:24:21;;;;;;;0.10;0.10;;;17.00;99.90;;;;;;5044062;28;21205;-82
2023/08/27 03:26:49;;;;;;;0.10;0.10;;;17.00;99.90;;;;;;5045648;28;20675;-82
2023/08/27 03:29:15;;;;;;;0.10;0.10;;;16.90;99.90;;;;;;5044178;28;20182;-81
2023/08/27 03:31:41;;;;;;;0.10;0.10;;;16.90;99.90;;;;;;5044271;28;20190;-82
2023/08/27 03:34:06;;;;;;;0.10;0.10;;;16.90;99.90;;;;;;5044021;28;20246;-82
2023/08/27 03:36:32;;;;;;;0.10;0.10;;;16.90;99.90;;;;;;5043786;28;20182;-81
2023/08/27 03:38:58;;;;;;;0.10;0.10;;;16.90;99.90;;;;;;5044026;28;20197;-81
2023/08/27 03:41:23;;;;;;;0.10;0.10;;;17.00;99.90;;;;;;5043279;28;20193;-82
2023/08/27 03:43:49;;;;;;;0.10;0.10;;;17.00;99.90;;;;;;5060430;28;20268;-82
2023/08/27 03:46:14;;;;;;;0.10;0.10;;;17.00;99.90;;;;;;5045963;28;20185;-82
2023/08/27 03:48:40;;;;;;;0.00;0.00;;;17.00;99.90;;;;;;5043843;28;20182;-82
2023/08/27 03:51:05;;;;;;;0.10;0.10;;;17.00;99.90;;;;;;5043605;28;20545;-81
2023/08/27 03:53:31;;;;;;;0.10;0.10;;;17.10;99.90;;;;;;5045292;28;20241;-82
2023/08/27 03:55:56;;;;;;;0.10;0.10;;;16.90;99.90;;;;;;5043754;28;20182;-82
2023/08/27 03:58:22;;;;;;;0.10;0.10;;;16.90;99.90;;;;;;5043822;28;20192;-82
2023/08/27 04:00:48;;;;;;;0.10;0.10;;;17.00;99.90;;;;;;5045092;28;20170;-82
2023/08/27 04:03:14;;;;;;;0.10;0.10;;;17.00;99.90;;;;;;5043379;28;20209;-82
2023/08/27 04:05:40;;;;;;;0.10;0.10;;;16.90;99.90;;;;;;5043161;28;20178;-82
2023/08/27 04:08:06;;;;;;;0.10;0.10;;;16.90;99.90;;;;;;5043681;28;20201;-81
2023/08/27 04:10:32;;;;;;;0.10;0.10;;;16.80;99.90;;;;;;5043135;28;20200;-82
2023/08/27 04:12:57;;;;;;;0.10;0.10;;;16.50;99.90;;;;;;5043442;28;20213;-82
2023/08/27 04:15:23;;;;;;;0.10;0.10;;;16.20;99.90;;;;;;5045764;28;20229;-82
2023/08/27 04:17:48;;;;;;;0.10;0.10;;;16.00;99.90;;;;;;5043089;28;20177;-82
2023/08/27 04:20:14;;;;;;;0.10;0.10;;;15.90;99.90;;;;;;5043002;28;20209;-82
2023/08/27 04:22:40;;;;;;;0.10;0.10;;;15.80;99.90;;;;;;5057522;28;20213;-82
2023/08/27 04:25:06;;;;;;;0.10;0.10;;;15.70;99.90;;;;;;5042425;28;20192;-82
2023/08/27 04:27:31;;;;;;;0.10;0.10;;;15.80;99.90;;;;;;5043510;28;20182;-82
2023/08/27 04:29:57;;;;;;;0.10;0.10;;;15.90;99.90;;;;;;5043257;28;20732;-82
2023/08/27 04:32:22;;;;;;;0.10;0.10;;;16.00;99.90;;;;;;5044137;28;20181;-82
2023/08/27 04:34:48;;;;;;;0.10;0.10;;;16.20;99.90;;;;;;5043020;28;20205;-81
2023/08/27 04:37:13;;;;;;;0.10;0.10;;;16.30;99.90;;;;;;5043969;28;20255;-82
2023/08/27 04:39:39;;;;;;;0.10;0.10;;;16.50;99.90;;;;;;5041437;28;20666;-81
2023/08/27 04:42:04;;;;;;;0.10;0.10;;;16.60;99.90;;;;;;5044395;28;20601;-81
2023/08/27 04:44:31;;;;;;;0.10;0.10;;;16.60;99.90;;;;;;5044355;28;20706;-81
2023/08/27 04:46:56;;;;;;;0.10;0.10;;;16.70;99.90;;;;;;5044577;28;20193;-81
2023/08/27 04:49:22;;;;;;;0.10;0.10;;;16.70;99.90;;;;;;5043266;28;20200;-81
2023/08/27 04:51:47;;;;;;;0.10;0.10;;;16.90;99.90;;;;;;5042644;28;20186;-81
2023/08/27 04:54:13;;;;;;;0.10;0.10;;;16.90;99.90;;;;;;5042976;28;20224;-80
2023/08/27 04:56:39;;;;;;;0.10;0.10;;;16.90;99.90;;;;;;5043096;28;20272;-81
2023/08/27 04:59:06;;;;;;;0.10;0.10;;;17.00;99.90;;;;;;5043406;28;20196;-81
2023/08/27 05:01:31;;;;;;;0.10;0.10;;;17.00;99.90;;;;;;5057765;28;21226;-80
2023/08/27 05:03:56;;;;;;;0.10;0.10;;;17.00;99.90;;;;;;5042843;28;20212;-81
2023/08/27 05:06:22;;;;;;;0.10;0.10;;;17.00;99.90;;;;;;5043451;28;20272;-82
2023/08/27 05:08:48;;;;;;;0.10;0.10;;;17.00;99.90;;;;;;5041039;28;20645;-82
2023/08/27 05:11:13;;;;;;;0.10;0.10;;;17.00;99.90;;;;;;5042115;28;20673;-83
2023/08/27 05:13:39;;;;;;;0.10;0.10;;;17.00;99.90;;;;;;5040062;28;20213;-82
2023/08/27 05:16:04;;;;;;;0.10;0.10;;;17.00;99.90;;;;;;5045836;28;20185;-82
2023/08/27 05:18:30;;;;;;;0.10;0.10;;;16.90;99.90;;;;;;5049121;28;20181;-81
2023/08/27 05:20:55;;;;;;;0.10;0.10;;;16.90;99.90;;;;;;5050378;28;20185;-84
2023/08/27 05:23:23;;;;;;;0.10;0.10;;;17.00;99.90;;;;;;5051830;28;20209;-85
2023/08/27 05:25:49;;;;;;;0.10;0.10;;;17.00;99.90;;;;;;5048350;28;20177;-84
2023/08/27 05:28:14;;;;;;;0.80;0.77;;;17.00;99.90;;;;;;5065593;28;20670;-84
2023/08/27 05:30:45;;;;;;;0.10;0.10;;;17.00;99.90;;;;;;5048149;28;20228;-84
2023/08/27 05:33:11;;;;;;;0.10;0.10;;;17.10;99.90;;;;;;5048072;28;20209;-84
2023/08/27 05:35:37;;;;;;;0.10;0.10;;;17.10;99.90;;;;;;5050027;28;20240;-85
2023/08/27 05:38:03;;;;;;;0.10;0.10;;;17.10;99.90;;;;;;5065366;28;20185;-85
2023/08/27 05:40:28;;;;;;;0.10;0.10;;;17.10;99.90;;;;;;5048593;28;20267;-85
2023/08/27 05:42:55;;;;;;;0.10;0.10;;;17.20;99.90;;;;;;5048136;28;20205;-86
2023/08/27 05:45:20;;;;;;;0.10;0.10;;;17.20;99.90;;;;;;5048924;28;20186;-84
2023/08/27 05:47:46;;;;;;;0.10;0.10;;;17.20;99.90;;;;;;5049167;28;20734;-85
2023/08/27 05:50:11;;;;;;;0.10;0.10;;;17.30;99.90;;;;;;5048203;28;20177;-85
2023/08/27 05:52:37;;;;;;;0.10;0.10;;;17.30;99.90;;;;;;5048439;28;20568;-85
2023/08/27 05:55:02;;;;;;;0.10;0.10;;;17.30;99.90;;;;;;5065989;28;20327;-84
2023/08/27 05:57:28;;;;;;;0.10;0.10;;;17.00;99.90;;;;;;5048184;28;20181;-85
2023/08/27 05:59:53;;;;;;;0.10;0.10;;;17.00;99.90;;;;;;5056311;28;20209;-84
2023/08/27 06:02:19;;;;;;;0.10;0.10;;;16.70;99.90;;;;;;5047533;28;21272;-85
2023/08/27 06:04:44;;;;;;;0.10;0.10;;;16.60;99.90;;;;;;5047740;28;20212;-85
2023/08/27 06:07:11;;;;;;;0.10;0.10;;;16.60;99.90;;;;;;5048599;28;20276;-85
2023/08/27 06:09:37;;;;;;;0.10;0.10;;;16.70;99.90;;;;;;5047599;28;20194;-85
2023/08/27 06:12:03;;;;;;;0.10;0.10;;;16.50;99.90;;;;;;5046755;28;20259;-86
2023/08/27 06:14:28;;;;;;;0.10;0.10;;;16.50;99.90;;;;;;5047145;28;20291;-83
2023/08/27 06:16:54;;;;;;;0.10;0.10;;;16.70;99.90;;;;;;5045271;28;20199;-83
2023/08/27 06:19:19;;;;;;;0.10;0.10;;;16.70;99.90;;;;;;5048341;28;20656;-82
2023/08/27 06:21:45;;;;;;;0.10;0.10;;;16.90;99.90;;;;;;5047046;28;20181;-83
2023/08/27 06:24:10;;;;;;;0.10;0.10;;;17.10;99.90;;;;;;5048779;28;20304;-82
2023/08/27 06:26:36;;;;;;;0.10;0.10;;;17.20;99.90;;;;;;5047012;28;20182;-82
2023/08/27 06:29:01;;;;;;;0.10;0.10;;;17.30;99.90;;;;;;5044699;28;20655;-82
2023/08/27 06:31:27;;;;;;;0.10;0.10;;;17.50;99.90;;;;;;5044448;28;20678;-83
2023/08/27 06:33:53;;;;;;;0.10;0.10;;;17.80;99.90;;;;;;5045416;28;20713;-83
2023/08/27 06:36:18;;;;;;;0.10;0.10;;;18.00;99.90;;;;;;5046342;28;20252;-83
2023/08/27 06:38:44;;;;;;;0.10;0.10;;;18.10;99.90;;;;;;5045150;28;20177;-83
2023/08/27 06:41:09;;;;;;;0.10;0.10;;;18.30;99.90;;;;;;5044619;28;20182;-82
2023/08/27 06:43:35;;;;;;;0.10;0.10;;;18.40;99.90;;;;;;5045557;28;20206;-83
2023/08/27 06:46:00;;;;;;;0.10;0.10;;;18.50;99.90;;;;;;5045323;28;20192;-83
2023/08/27 06:48:26;;;;;;;0.10;0.10;;;18.60;99.90;;;;;;5062076;28;20608;-82
2023/08/27 06:50:52;;;;;;;0.10;0.10;;;18.60;99.90;;;;;;5046418;28;20195;-83
2023/08/27 06:53:18;;;;;;;0.10;0.10;;;18.60;99.90;;;;;;5044289;28;20206;-83
2023/08/27 06:55:43;;;;;;;0.10;0.10;;;18.60;99.90;;;;;;5045137;28;20237;-83
2023/08/27 06:58:09;;;;;;;0.10;0.10;;;18.60;99.90;;;;;;5046132;28;20735;-83
2023/08/27 07:00:34;;;;;;;0.10;0.10;;;18.70;99.90;;;;;;5060137;28;20193;-83
2023/08/27 07:03:00;;;;;;;0.10;0.10;;;18.60;99.90;;;;;;5060676;28;20215;-82
2023/08/27 07:05:26;;;;;;;0.10;0.10;;;18.50;99.90;;;;;;5044429;28;20184;-83
2023/08/27 07:07:51;;;;;;;0.10;0.10;;;18.50;99.90;;;;;;5042423;28;20271;-84
2023/08/27 07:10:17;;;;;;;0.10;0.10;;;18.50;99.90;;;;;;5040746;28;20178;-83
2023/08/27 07:12:44;;;;;;;0.10;0.10;;;18.60;99.90;;;;;;5044089;28;20215;-82
2023/08/27 07:15:10;;;;;;;0.10;0.10;;;18.50;99.90;;;;;;5042434;28;20211;-82
2023/08/27 07:17:36;;;;;;;0.10;0.10;;;18.60;99.90;;;;;;5036775;28;20194;-82
2023/08/27 07:20:07;;;;;;;0.10;0.10;;;18.60;99.90;;;;;;5044308;28;20196;-82
2023/08/27 07:22:33;;;;;;;0.10;0.10;;;18.60;99.90;;;;;;5043204;28;20181;-83
2023/08/27 07:24:59;;;;;;;0.10;0.10;;;18.60;99.90;;;;;;5043946;28;20215;-82
2023/08/27 07:27:25;;;;;;;0.10;0.10;;;18.60;99.90;;;;;;5036037;28;20734;-82
2023/08/27 07:29:50;;;;;;;0.10;0.10;;;18.60;99.90;;;;;;5045225;28;20185;-82
2023/08/27 07:32:16;;;;;;;0.10;0.10;;;18.30;99.90;;;;;;5044119;28;20197;-82
2023/08/27 07:34:42;;;;;;;0.10;0.10;;;18.00;99.90;;;;;;5043994;28;20267;-82
2023/08/27 07:37:07;;;;;;;0.10;0.10;;;17.80;99.90;;;;;;5043679;28;20244;-82
2023/08/27 07:39:33;;;;;;;0.10;0.10;;;17.70;99.90;;;;;;5041164;28;20190;-82
2023/08/27 07:41:59;;;;;;;0.10;0.10;;;18.00;99.90;;;;;;5043361;28;20200;-82
2023/08/27 07:44:25;;;;;;;0.10;0.10;;;18.40;99.90;;;;;;5039686;28;20217;-84
2023/08/27 07:46:51;;;;;;;0.10;0.10;;;18.50;99.90;;;;;;5056871;28;20193;-82
2023/08/27 07:49:16;;;;;;;0.10;0.10;;;18.40;99.90;;;;;;5043233;28;20545;-82
2023/08/27 07:51:42;;;;;;;0.10;0.10;;;18.00;99.90;;;;;;5043238;28;20201;-81
2023/08/27 07:54:07;;;;;;;0.10;0.10;;;17.70;99.90;;;;;;5039982;28;20236;-81
2023/08/27 07:56:33;;;;;;;0.10;0.10;;;17.60;99.90;;;;;;5042955;28;20296;-81
2023/08/27 07:58:58;;;;;;;0.10;0.10;;;17.60;99.90;;;;;;5044386;28;20181;-81
2023/08/27 08:01:24;;;;;;;0.10;0.10;;;17.50;99.90;;;;;;5044383;28;20197;-81
2023/08/27 08:03:49;;;;;;;0.10;0.10;;;17.50;99.90;;;;;;5039962;28;20232;-81
2023/08/27 08:06:14;;;;;;;0.10;0.10;;;17.70;99.90;;;;;;5041158;28;20187;-81
2023/08/27 08:08:40;;;;;;;0.10;0.10;;;18.30;99.90;;;;;;5041789;28;20236;-81
2023/08/27 08:11:06;;;;;;;0.10;0.10;;;18.60;99.90;;;;;;5043188;28;20190;-81
2023/08/27 08:13:36;;;;;;;0.10;0.10;;;18.40;99.90;;;;;;5041353;28;20297;-81
2023/08/27 08:16:02;;;;;;;0.10;0.10;;;18.40;99.90;;;;;;5042184;28;20269;-81
2023/08/27 08:18:28;;;;;;;0.10;0.10;;;18.70;99.90;;;;;;5040644;28;20289;-81
2023/08/27 08:20:55;;;;;;;0.10;0.10;;;18.40;99.90;;;;;;5042647;28;20915;-81
2023/08/27 08:23:22;;;;;;;0.10;0.10;;;19.00;99.90;;;;;;5044868;28;20592;-81
2023/08/27 08:25:51;;;;;;;0.10;0.10;;;19.40;99.90;;;;;;5041188;28;20192;-81
2023/08/27 08:28:17;;;;;;;0.10;0.10;;;19.70;99.90;;;;;;5042097;28;20188;-81
2023/08/27 08:30:49;;;;;;;0.10;0.10;;;20.00;99.90;;;;;;5042488;28;21233;-82
2023/08/27 08:33:18;;;;;;;0.10;0.10;;;20.30;99.90;;;;;;5044846;28;20610;-81
2023/08/27 08:35:44;;;;;;;0.10;0.10;;;20.60;99.90;;;;;;5044861;28;20178;-81
2023/08/27 08:38:09;;;;;;;0.10;0.10;;;20.90;99.90;;;;;;5041297;28;20197;-81
2023/08/27 08:40:44;;;;;;;0.10;0.10;;;21.10;99.90;;;;;;5042733;28;20193;-82
2023/08/27 08:43:21;;;;;;;0.10;0.10;;;21.10;99.90;;;;;;5034054;28;20228;-81
2023/08/27 08:46:05;;;;;;;0.10;0.10;;;21.20;99.90;;;;;;5043943;28;20188;-82
2023/08/27 08:48:38;;;;;;;0.10;0.10;;;21.40;99.90;;;;;;5043685;28;20200;-82
2023/08/27 08:51:05;;;;;;;0.10;0.10;;;21.60;99.90;;;;;;5044946;28;20185;-81
2023/08/27 08:53:32;;;;;;;0.10;0.10;;;21.90;99.90;;;;;;5042838;28;20209;-82
2023/08/27 08:56:03;;;;;;;0.10;0.10;;;22.00;99.90;;;;;;5041918;28;20182;-82
2023/08/27 08:58:33;;;;;;;0.10;0.10;;;22.20;99.90;;;;;;5044085;28;20193;-81
2023/08/27 09:00:59;;;;;;;0.10;0.10;;;22.40;99.90;;;;;;5034262;28;20182;-82
2023/08/27 09:03:27;;;;;;;0.10;0.10;;;22.50;99.90;;;;;;5044227;28;20212;-81
2023/08/27 09:05:54;;;;;;;0.10;0.10;;;22.60;99.90;;;;;;5045077;28;20239;-82
2023/08/27 09:08:20;;;;;;;0.10;0.10;;;22.90;99.90;;;;;;5042308;28;20201;-82
2023/08/27 09:10:48;;;;;;;0.10;0.10;;;22.90;99.90;;;;;;5041276;28;20193;-81
2023/08/27 09:13:18;;;;;;;0.10;0.10;;;23.10;99.90;;;;;;5041157;28;20208;-81
2023/08/27 09:15:43;;;;;;;0.10;0.10;;;23.40;99.90;;;;;;5040822;28;20208;-82
2023/08/27 09:18:09;;;;;;;0.10;0.10;;;23.60;99.90;;;;;;5038997;28;20774;-82
2023/08/27 09:20:36;;;;;;;0.10;0.10;;;23.70;99.90;;;;;;5039709;28;20255;-82
2023/08/27 09:23:02;;;;;;;0.10;0.10;;;23.80;99.90;;;;;;5040648;28;20206;-83
2023/08/27 09:25:27;;;;;;;0.10;0.10;;;23.40;99.90;;;;;;5040801;28;20189;-82
2023/08/27 09:27:53;;;;;;;0.10;0.10;;;23.40;99.90;;;;;;5039491;28;20272;-82
2023/08/27 09:30:21;;;;;;;0.10;0.10;;;23.60;99.90;;;;;;5040591;28;20193;-82
2023/08/27 09:32:47;;;;;;;0.10;0.10;;;23.80;99.90;;;;;;5039772;28;20248;-82
2023/08/27 09:35:12;;;;;;;0.10;0.10;;;23.90;99.90;;;;;;5039630;28;20215;-82
2023/08/27 09:37:40;;;;;;;0.10;0.10;;;23.90;99.90;;;;;;5039085;28;20217;-82
2023/08/27 09:40:10;;;;;;;0.10;0.10;;;23.80;99.90;;;;;;5055917;28;20197;-82
2023/08/27 09:42:36;;;;;;;0.10;0.10;;;24.10;99.90;;;;;;5040162;28;20189;-82
2023/08/27 09:45:02;;;;;;;0.10;0.10;;;24.30;99.90;;;;;;5037151;28;20192;-82
2023/08/27 09:47:36;;;;;;;0.10;0.10;;;24.30;99.90;;;;;;5041003;28;20572;-82
2023/08/27 09:50:06;;;;;;;0.10;0.10;;;24.50;99.90;;;;;;5057121;28;20530;-82
2023/08/27 09:52:32;;;;;;;0.10;0.10;;;24.60;99.90;;;;;;5038978;28;20186;-82
2023/08/27 09:54:58;;;;;;;0.10;0.10;;;24.70;99.90;;;;;;5041827;28;20214;-82
2023/08/27 09:57:24;;;;;;;0.10;0.10;;;24.80;99.90;;;;;;5040824;28;20188;-82
2023/08/27 09:59:50;;;;;;;0.10;0.10;;;24.50;99.90;;;;;;5041006;28;20223;-82
2023/08/27 10:02:16;;;;;;;0.10;0.10;;;24.60;99.90;;;;;;5033802;28;20185;-82
2023/08/27 10:04:53;;;;;;;0.10;0.10;;;24.80;99.90;;;;;;5043469;28;20229;-82
2023/08/27 10:07:19;;;;;;;0.10;0.10;;;24.90;99.90;;;;;;5046489;28;20211;-82
2023/08/27 10:09:53;;;;;;;0.10;0.10;;;25.20;99.90;;;;;;5044313;28;20182;-82
2023/08/27 10:12:22;;;;;;;0.10;0.10;;;25.50;99.90;;;;;;5045393;28;20193;-82
2023/08/27 10:14:48;;;;;;;0.10;0.10;;;25.60;99.90;;;;;;5043414;28;20237;-82
2023/08/27 10:17:15;;;;;;;0.10;0.10;;;25.60;99.90;;;;;;5037098;28;20298;-82
2023/08/27 10:19:41;;;;;;;0.10;0.10;;;25.70;99.90;;;;;;5045212;28;20186;-82
2023/08/27 10:22:07;;;;;;;0.10;0.10;;;25.50;99.90;;;;;;5056044;28;20185;-82
2023/08/27 10:24:34;;;;;;;0.10;0.10;;;25.60;99.90;;;;;;5043663;28;20567;-82
2023/08/27 10:27:01;;;;;;;0.10;0.10;;;25.70;99.90;;;;;;5043416;28;20185;-82
2023/08/27 10:29:28;;;;;;;0.10;0.10;;;25.70;99.90;;;;;;5053350;28;20199;-82
2023/08/27 10:31:54;;;;;;;0.10;0.10;;;25.80;99.90;;;;;;5044330;28;20196;-82
2023/08/27 10:34:23;;;;;;;0.10;0.10;;;25.70;99.90;;;;;;5051919;28;20209;-82
2023/08/27 10:36:51;;;;;;;0.10;0.10;;;25.60;99.90;;;;;;5063109;28;20261;-82
2023/08/27 10:39:25;;;;;;;0.10;0.10;;;25.40;99.90;;;;;;5043111;28;20194;-82
2023/08/27 10:41:51;;;;;;;0.10;0.10;;;25.70;99.90;;;;;;5061757;28;20213;-82
2023/08/27 10:44:20;;;;;;;0.10;0.10;;;25.60;99.90;;;;;;5041256;28;20206;-82
2023/08/27 10:47:14;;;;;;;0.10;0.10;;;26.00;99.90;;;;;;5057627;28;20178;-82
2023/08/27 10:49:41;;;;;;;0.10;0.10;;;26.20;99.90;;;;;;5032952;28;20248;-82
2023/08/27 10:52:16;;;;;;;0.10;0.10;;;26.20;99.90;;;;;;5046840;28;20204;-82
2023/08/27 10:54:42;;;;;;;0.10;0.10;;;26.20;99.90;;;;;;5041694;28;20818;-81
2023/08/27 10:57:20;;;;;;;0.10;0.10;;;26.20;99.90;;;;;;5045829;28;20193;-81
2023/08/27 10:59:46;;;;;;;0.10;0.10;;;26.40;99.90;;;;;;5042402;28;20219;-82
2023/08/27 11:02:12;;;;;;;0.10;0.10;;;26.60;99.90;;;;;;5045301;28;20586;-83
2023/08/27 11:04:42;;;;;;;0.10;0.10;;;26.30;99.90;;;;;;5040737;28;20554;-82
2023/08/27 11:07:17;;;;;;;0.10;0.10;;;26.20;99.90;;;;;;5046318;28;20194;-82
2023/08/27 11:09:54;;;;;;;0.10;0.10;;;25.70;99.90;;;;;;5043446;28;20858;-82
2023/08/27 11:12:21;;;;;;;0.10;0.10;;;25.90;99.90;;;;;;5044504;28;20338;-81
2023/08/27 11:14:47;;;;;;;0.10;0.10;;;26.10;99.90;;;;;;5043528;28;21375;-82
2023/08/27 11:17:28;;;;;;;0.10;0.10;;;26.00;99.90;;;;;;5042506;28;20227;-82
2023/08/27 11:19:57;;;;;;;0.10;0.10;;;26.00;99.90;;;;;;5043482;28;20182;-82
2023/08/27 11:22:23;;;;;;;0.10;0.10;;;25.90;99.90;;;;;;5039465;28;20185;-83
2023/08/27 11:24:54;;;;;;;0.10;0.10;;;25.80;99.90;;;;;;5038581;28;20193;-83
2023/08/27 11:27:22;;;;;;;0.10;0.10;;;25.50;99.90;;;;;;5045222;28;20185;-83
2023/08/27 11:29:52;;;;;;;0.10;0.10;;;25.40;99.90;;;;;;5044947;28;20247;-82
2023/08/27 11:32:20;;;;;;;0.10;0.10;;;25.60;99.90;;;;;;5060872;28;20999;-82
2023/08/27 11:34:48;;;;;;;0.10;0.10;;;25.40;99.90;;;;;;5041201;28;20205;-83
2023/08/27 11:37:14;;;;;;;0.10;0.10;;;25.20;99.90;;;;;;5043121;28;20190;-83
2023/08/27 11:39:40;;;;;;;0.10;0.10;;;25.20;99.90;;;;;;5044643;28;20652;-84
2023/08/27 11:42:15;;;;;;;0.10;0.10;;;25.10;99.90;;;;;;5044600;28;20243;-84
2023/08/27 11:44:51;;;;;;;0.10;0.10;;;24.80;99.90;;;;;;5043211;28;20209;-83
2023/08/27 11:47:18;;;;;;;0.10;0.10;;;24.60;99.90;;;;;;5060726;28;20181;-83
2023/08/27 11:49:44;;;;;;;0.10;0.10;;;24.30;99.90;;;;;;5044190;28;20174;-84
2023/08/27 11:52:13;;;;;;;0.10;0.10;;;24.10;99.90;;;;;;5045049;28;20197;-84
2023/08/27 11:54:40;;;;;;;0.10;0.10;;;23.70;99.90;;;;;;5043485;28;20201;-84
2023/08/27 11:57:06;;;;;;;0.10;0.10;;;23.40;99.90;;;;;;5045786;28;20202;-83
2023/08/27 11:59:32;;;;;;;0.10;0.10;;;23.20;99.90;;;;;;5044803;28;20178;-83
2023/08/27 12:01:59;;;;;;;0.10;0.10;;;22.90;99.90;;;;;;5043420;28;20185;-84
2023/08/27 12:04:28;;;;;;;0.10;0.10;;;22.40;99.90;;;;;;5044623;28;20290;-84
2023/08/27 12:06:58;;;;;;;0.10;0.10;;;22.20;99.90;;;;;;5043825;28;20201;-84
2023/08/27 12:09:26;;;;;;;0.10;0.10;;;22.00;99.90;;;;;;5044065;28;20659;-84
2023/08/27 12:11:53;;;;;;;0.10;0.10;;;21.60;99.90;;;;;;5045359;28;20648;-84
2023/08/27 12:14:25;;;;;;;0.10;0.10;;;21.10;99.90;;;;;;5044850;28;20205;-84
2023/08/27 12:16:52;;;;;;;0.10;0.10;;;20.80;99.90;;;;;;5043781;28;20280;-83
2023/08/27 12:19:22;;;;;;;0.10;0.10;;;20.70;99.90;;;;;;5044105;28;20261;-83
2023/08/27 12:21:49;;;;;;;0.10;0.10;;;20.70;99.90;;;;;;5042742;28;20636;-83
2023/08/27 12:24:35;;;;;;;0.10;0.10;;;20.80;99.90;;;;;;5045404;28;20255;-83
2023/08/27 12:27:04;;;;;;;0.10;0.10;;;21.10;99.90;;;;;;5043737;28;20239;-83
2023/08/27 12:29:52;;;;;;;0.10;0.10;;;21.20;99.90;;;;;;5044187;28;20189;-84
2023/08/27 12:32:20;;;;;;;0.10;0.10;;;21.50;99.90;;;;;;5043982;28;20570;-83
2023/08/27 12:34:46;;;;;;;0.10;0.10;;;21.70;99.90;;;;;;5043022;28;20219;-84
2023/08/27 12:37:12;;;;;;;0.10;0.10;;;21.80;99.90;;;;;;5043045;28;20186;-83
2023/08/27 12:39:40;;;;;;;0.10;0.10;;;22.00;99.90;;;;;;5043184;28;20608;-83
2023/08/27 12:42:06;;;;;;;0.10;0.10;;;22.00;99.90;;;;;;5044351;28;20213;-83
2023/08/27 12:44:33;;;;;;;0.10;0.10;;;22.00;99.90;;;;;;5043227;28;20205;-83
2023/08/27 12:46:59;;;;;;;0.10;0.10;;;22.20;99.90;;;;;;5045406;28;20659;-83